Time;durP1;ratioP1;P1;durP2;ratioP2;P2;SDS_P1;SDS_P2;PMS_P1;PMS_P2;Temp;Humidity;BMP_temperature;BMP_pressure;BME280_temperature;BME280_humidity;BME280_pressure;Samples;Min_cycle;Max_cycle;Signal;HPM_P1;HPM_P2
2021/08/11 00:00:12;;;;;;;26.10;10.78;;;;;;;15.47;90.46;100306.94;1710479;83;25749;-65
2021/08/11 00:02:40;;;;;;;17.70;12.10;;;;;;;15.42;90.59;100305.23;1656669;85;26414;-64
2021/08/11 00:05:08;;;;;;;16.27;11.78;;;;;;;15.42;90.61;100307.17;1709335;83;25828;-64
2021/08/11 00:07:35;;;;;;;17.40;12.07;;;;;;;15.41;90.93;100302.30;1710581;83;25720;-64
2021/08/11 00:10:04;;;;;;;17.73;11.10;;;;;;;15.42;91.03;100300.36;1656360;85;27400;-65
2021/08/11 00:12:30;;;;;;;14.98;10.93;;;;;;;15.42;91.18;100301.14;1709925;83;25662;-65
2021/08/11 00:14:57;;;;;;;16.85;11.20;;;;;;;15.40;91.14;100300.69;1710424;83;26332;-65
2021/08/11 00:17:23;;;;;;;18.25;12.07;;;;;;;15.42;91.37;100304.44;1710406;83;25736;-64
2021/08/11 00:19:50;;;;;;;16.25;11.68;;;;;;;15.43;91.42;100304.10;1710261;83;25678;-64
2021/08/11 00:22:17;;;;;;;17.17;12.10;;;;;;;15.46;91.61;100303.42;1706251;83;27594;-64
2021/08/11 00:24:43;;;;;;;20.15;12.63;;;;;;;15.50;91.66;100302.17;1707303;83;25996;-65
2021/08/11 00:27:10;;;;;;;17.07;13.10;;;;;;;15.54;91.77;100299.55;1710425;83;25659;-65
2021/08/11 00:29:37;;;;;;;22.22;13.65;;;;;;;15.58;91.81;100304.53;1710947;83;25718;-66
2021/08/11 00:32:05;;;;;;;18.67;14.03;;;;;;;15.61;91.74;100302.50;1710930;83;25699;-66
2021/08/11 00:34:31;;;;;;;20.50;14.00;;;;;;;15.64;91.82;100304.55;1652421;85;27308;-64
2021/08/11 00:36:58;;;;;;;17.67;13.55;;;;;;;15.64;91.63;100300.45;1646510;86;25773;-64
2021/08/11 00:39:24;;;;;;;17.32;13.70;;;;;;;15.65;91.49;100302.84;1710447;83;26384;-64
2021/08/11 00:41:50;;;;;;;21.00;14.18;;;;;;;15.65;91.39;100305.56;1705900;84;25685;-65
2021/08/11 00:44:17;;;;;;;19.45;14.18;;;;;;;15.68;91.61;100300.80;1705957;84;25755;-65
2021/08/11 00:46:45;;;;;;;19.20;14.18;;;;;;;15.70;91.59;100293.64;1705864;84;27376;-65
2021/08/11 00:49:16;;;;;;;19.15;14.80;;;;;;;15.71;91.50;100300.66;1684530;84;25796;-65
2021/08/11 00:51:44;;;;;;;22.10;14.73;;;;;;;15.74;91.72;100297.25;1705954;83;25718;-65
2021/08/11 00:54:12;;;;;;;22.03;15.33;;;;;;;15.77;91.74;100295.81;1684346;84;25666;-65
2021/08/11 00:56:45;;;;;;;18.45;14.47;;;;;;;15.75;91.34;100289.34;1705941;84;25713;-65
2021/08/11 00:59:14;;;;;;;19.95;14.45;;;;;;;15.76;91.33;100293.64;1705921;84;27328;-65
2021/08/11 01:01:42;;;;;;;19.02;14.38;;;;;;;15.79;91.57;100293.53;1705948;83;31821;-65
2021/08/11 01:04:11;;;;;;;20.50;14.70;;;;;;;15.80;91.49;100296.47;1705931;84;26346;-65
2021/08/11 01:06:39;;;;;;;22.73;14.80;;;;;;;15.82;91.42;100298.30;1705969;84;25774;-65
2021/08/11 01:09:06;;;;;;;22.22;15.28;;;;;;;15.81;91.30;100292.62;1684117;84;25802;-65
2021/08/11 01:11:34;;;;;;;25.00;15.38;;;;;;;15.82;91.44;100285.45;1705890;84;27954;-65
2021/08/11 01:14:01;;;;;;;24.92;16.02;;;;;;;15.82;91.39;100290.12;1705837;84;25910;-65
2021/08/11 01:16:28;;;;;;;24.35;14.30;;;;;;;15.83;91.50;100291.70;1705818;84;25773;-65
2021/08/11 01:18:54;;;;;;;28.02;14.58;;;;;;;15.82;91.21;100293.64;1705816;84;26331;-65
2021/08/11 01:21:29;;;;;;;35.45;15.23;;;;;;;15.83;91.23;100298.52;1705866;84;25723;-65
2021/08/11 01:24:13;;;;;;;28.20;15.70;;;;;;;15.82;91.44;100290.91;1705900;84;27405;-65
2021/08/11 01:27:14;;;;;;;26.57;14.83;;;;;;;15.84;91.55;100288.63;1705897;84;25841;-65
2021/08/11 01:29:58;;;;;;;34.73;15.93;;;;;;;15.84;91.55;100294.08;1705917;84;25634;-65
2021/08/11 01:32:52;;;;;;;30.25;15.15;;;;;;;15.87;91.68;100298.86;1705402;84;25792;-66
2021/08/11 01:35:20;;;;;;;36.10;15.38;;;;;;;15.88;91.64;100292.82;1705838;83;25695;-65
2021/08/11 01:37:52;;;;;;;37.83;15.20;;;;;;;15.85;91.58;100282.59;1706053;84;27403;-65
2021/08/11 01:40:27;;;;;;;41.48;17.20;;;;;;;15.87;91.63;100287.16;1705825;84;25737;-65
2021/08/11 01:42:57;;;;;;;38.92;16.55;;;;;;;15.89;91.63;100290.33;1705844;84;25769;-65
2021/08/11 01:45:36;;;;;;;38.05;15.48;;;;;;;15.92;91.82;100286.10;1705821;83;25690;-65
2021/08/11 01:48:15;;;;;;;49.25;17.27;;;;;;;15.91;91.71;100281.23;1706245;84;26065;-65
2021/08/11 01:50:45;;;;;;;;;;;;;;;15.91;91.71;100272.26;1708605;83;27372;-65
2021/08/11 01:53:17;;;;;;;44.63;16.10;;;;;;;15.92;91.60;100277.92;1706248;84;25654;-65
2021/08/11 01:55:49;;;;;;;54.35;16.02;;;;;;;15.90;91.80;100272.80;1704425;84;25700;-65
2021/08/11 01:58:16;;;;;;;48.05;17.60;;;;;;;15.94;92.08;100272.94;1704693;84;25701;-65
2021/08/11 02:00:43;;;;;;;45.35;17.12;;;;;;;15.96;92.11;100281.56;1706127;83;25701;-65
2021/08/11 02:03:10;;;;;;;50.95;17.45;;;;;;;15.97;91.81;100285.86;1706116;83;28277;-65
2021/08/11 02:05:37;;;;;;;44.50;17.20;;;;;;;15.95;91.81;100286.78;1706012;83;25857;-65
2021/08/11 02:08:05;;;;;;;41.73;17.37;;;;;;;15.96;91.94;100285.08;1706216;83;25725;-65
2021/08/11 02:10:32;;;;;;;48.15;18.35;;;;;;;15.98;91.91;100287.46;1706037;83;25711;-66
2021/08/11 02:13:00;;;;;;;52.43;18.17;;;;;;;15.98;91.94;100286.09;1706026;84;25783;-66
2021/08/11 02:15:27;;;;;;;41.70;17.92;;;;;;;15.99;91.91;100287.70;1706090;84;27575;-64
2021/08/11 02:17:54;;;;;;;43.78;17.95;;;;;;;16.00;91.94;100287.33;1684382;84;25948;-64
2021/08/11 02:20:20;;;;;;;45.28;18.42;;;;;;;15.98;91.80;100284.16;1684429;84;25756;-64
2021/08/11 02:22:47;;;;;;;51.02;18.87;;;;;;;15.97;91.68;100285.31;1706128;84;25754;-64
2021/08/11 02:25:14;;;;;;;45.67;18.02;;;;;;;15.98;91.85;100292.34;1706097;84;25862;-64
2021/08/11 02:27:55;;;;;;;47.67;19.37;;;;;;;15.95;91.73;100285.42;1684226;84;27406;-64
2021/08/11 02:30:27;;;;;;;51.35;19.60;;;;;;;15.96;91.84;100289.75;1673100;85;25664;-64
2021/08/11 02:33:26;;;;;;;43.45;20.68;;;;;;;15.93;91.69;100283.03;1652014;86;25633;-64
2021/08/11 02:35:58;;;;;;;38.67;19.30;;;;;;;15.91;91.58;100277.71;1711103;83;25764;-64
2021/08/11 02:38:34;;;;;;;44.60;20.80;;;;;;;15.86;91.50;100278.16;1711239;83;25798;-64
2021/08/11 02:41:15;;;;;;;46.77;21.33;;;;;;;15.84;91.52;100278.30;1674199;85;27471;-64
2021/08/11 02:43:53;;;;;;;38.55;18.73;;;;;;;15.81;91.42;100281.70;1710597;83;25611;-64
2021/08/11 02:46:26;;;;;;;49.93;19.87;;;;;;;15.79;91.38;100281.27;1676210;85;25742;-64
2021/08/11 02:49:02;;;;;;;42.13;20.12;;;;;;;15.76;91.31;100276.49;1676131;85;25651;-64
2021/08/11 02:51:34;;;;;;;43.68;19.57;;;;;;;15.74;91.26;100281.47;1709940;83;26316;-64
2021/08/11 02:54:13;;;;;;;39.83;19.80;;;;;;;15.72;91.33;100282.39;1710659;83;27341;-64
2021/08/11 02:56:42;;;;;;;;;;;;;;;15.69;91.35;100279.77;1713140;83;25774;-64
2021/08/11 02:59:10;;;;;;;36.65;17.80;;;;;;;15.68;91.38;100284.44;1710602;83;25701;-64
2021/08/11 03:01:37;;;;;;;37.48;19.07;;;;;;;15.64;91.19;100285.45;1710472;83;26297;-64
2021/08/11 03:04:04;;;;;;;39.10;18.62;;;;;;;15.61;91.10;100285.59;1710503;83;25647;-64
2021/08/11 03:06:31;;;;;;;35.05;19.07;;;;;;;15.60;91.02;100280.48;1710569;83;27250;-65
2021/08/11 03:08:59;;;;;;;40.50;18.10;;;;;;;15.57;90.86;100282.52;1710395;83;25734;-65
2021/08/11 03:11:28;;;;;;;47.93;20.65;;;;;;;15.54;90.76;100290.80;1710477;83;25761;-65
2021/08/11 03:13:56;;;;;;;35.13;20.05;;;;;;;15.50;90.65;100287.97;1710600;83;25690;-65
2021/08/11 03:16:23;;;;;;;40.65;19.02;;;;;;;15.46;90.60;100286.26;1710432;83;25659;-65
2021/08/11 03:18:51;;;;;;;39.38;19.17;;;;;;;15.43;90.77;100288.33;1710524;83;27255;-65
2021/08/11 03:21:18;;;;;;;33.88;17.55;;;;;;;15.41;90.71;100293.30;1710470;83;25862;-65
2021/08/11 03:23:45;;;;;;;42.20;20.15;;;;;;;15.38;90.62;100281.74;1687469;83;26164;-65
2021/08/11 03:26:11;;;;;;;37.95;18.90;;;;;;;15.37;90.62;100292.41;1713629;83;26450;-65
2021/08/11 03:28:38;;;;;;;56.20;19.70;;;;;;;15.34;90.53;100298.53;1713596;83;25861;-65
2021/08/11 03:31:05;;;;;;;36.73;20.43;;;;;;;15.30;90.75;100300.57;1712499;83;27311;-65
2021/08/11 03:33:32;;;;;;;37.73;21.12;;;;;;;15.31;90.92;100308.98;1710415;83;25687;-65
2021/08/11 03:35:58;;;;;;;49.73;19.70;;;;;;;15.29;90.97;100303.09;1710466;83;25754;-65
2021/08/11 03:38:24;;;;;;;36.00;20.68;;;;;;;15.29;91.17;100306.39;1710411;83;25746;-65
2021/08/11 03:40:51;;;;;;;40.35;21.75;;;;;;;15.29;91.28;100309.11;1688858;84;26044;-65
2021/08/11 03:43:17;;;;;;;49.00;19.62;;;;;;;15.29;91.52;100313.98;1710396;83;27384;-65
2021/08/11 03:45:44;;;;;;;40.23;20.43;;;;;;;15.31;91.73;100308.20;1710383;83;25687;-66
2021/08/11 03:48:10;;;;;;;47.43;21.05;;;;;;;15.32;91.79;100319.31;1710640;83;25690;-66
2021/08/11 03:50:37;;;;;;;41.68;21.50;;;;;;;15.32;91.79;100322.03;1710501;83;25842;-65
2021/08/11 03:53:04;;;;;;;44.42;22.27;;;;;;;15.35;92.01;100324.66;1710232;83;25730;-65
2021/08/11 03:55:33;;;;;;;48.45;20.97;;;;;;;15.36;92.07;100314.78;1710096;83;28333;-65
2021/08/11 03:58:00;;;;;;;45.05;23.50;;;;;;;15.40;92.30;100312.95;1710582;83;25718;-66
2021/08/11 04:00:27;;;;;;;51.18;22.20;;;;;;;15.44;92.35;100314.43;1675509;85;25680;-65
2021/08/11 04:02:54;;;;;;;52.15;22.62;;;;;;;15.45;92.23;100313.31;1710152;83;26161;-66
2021/08/11 04:05:20;;;;;;;42.45;23.18;;;;;;;15.49;92.61;100312.84;1710447;83;25711;-66
2021/08/11 04:07:47;;;;;;;46.58;23.42;;;;;;;15.54;92.75;100315.91;1710195;83;27393;-65
2021/08/11 04:10:13;;;;;;;54.93;24.07;;;;;;;15.54;92.46;100309.88;1675943;85;25809;-66
2021/08/11 04:12:40;;;;;;;43.52;22.60;;;;;;;15.57;92.58;100308.42;1710601;83;25752;-66
2021/08/11 04:15:08;;;;;;;53.38;23.42;;;;;;;15.60;92.64;100303.65;1709769;83;25719;-65
2021/08/11 04:17:35;;;;;;;61.88;26.48;;;;;;;15.65;93.02;100304.20;1710595;83;25699;-66
2021/08/11 04:20:04;;;;;;;51.18;25.43;;;;;;;15.74;93.25;100307.38;1687264;83;28011;-66
2021/08/11 04:22:30;;;;;;;51.73;25.82;;;;;;;15.79;93.16;100309.32;1710656;83;26148;-66
2021/08/11 04:24:56;;;;;;;52.27;25.27;;;;;;;15.82;92.91;100305.13;1710432;83;25690;-64
2021/08/11 04:27:23;;;;;;;65.47;28.83;;;;;;;15.85;93.16;100290.78;1710472;83;26513;-65
2021/08/11 04:29:50;;;;;;;53.15;29.65;;;;;;;15.90;93.35;100280.98;1710581;83;25690;-65
2021/08/11 04:32:16;;;;;;;53.33;27.30;;;;;;;15.92;93.08;100284.19;1710419;83;27396;-66
2021/08/11 04:34:46;;;;;;;72.80;28.95;;;;;;;15.95;93.09;100294.39;1675610;85;25733;-65
2021/08/11 04:37:12;;;;;;;61.83;28.07;;;;;;;16.01;93.58;100297.11;1710851;83;26327;-65
2021/08/11 04:39:39;;;;;;;68.02;30.55;;;;;;;16.09;93.90;100298.67;1710424;83;25736;-65
2021/08/11 04:42:06;;;;;;;61.28;30.48;;;;;;;16.13;94.08;100294.91;1710425;83;25712;-65
2021/08/11 04:44:32;;;;;;;70.70;28.77;;;;;;;16.16;93.35;100297.53;1710443;83;27385;-66
2021/08/11 04:46:58;;;;;;;64.42;29.48;;;;;;;16.17;93.34;100303.98;1710372;83;25949;-66
2021/08/11 04:49:25;;;;;;;60.55;29.18;;;;;;;16.22;93.66;100297.50;1685993;84;25801;-66
2021/08/11 04:51:52;;;;;;;62.93;29.40;;;;;;;16.25;93.88;100289.41;1709781;83;25719;-66
2021/08/11 04:54:19;;;;;;;59.45;28.90;;;;;;;16.30;93.67;100303.96;1710434;83;25766;-65
2021/08/11 04:56:45;;;;;;;57.83;29.65;;;;;;;16.30;93.13;100310.78;1710398;83;27445;-65
2021/08/11 04:59:11;;;;;;;57.90;29.60;;;;;;;16.30;93.24;100315.66;1710405;83;26065;-66
2021/08/11 05:01:37;;;;;;;65.97;30.23;;;;;;;16.34;93.48;100317.91;1710463;83;25735;-66
2021/08/11 05:04:06;;;;;;;70.92;35.33;;;;;;;16.35;93.22;100319.52;1685227;84;26153;-66
2021/08/11 05:06:32;;;;;;;67.55;37.23;;;;;;;16.38;93.42;100316.67;1685623;84;26406;-65
2021/08/11 05:08:58;;;;;;;74.77;36.55;;;;;;;16.38;93.13;100312.00;1708146;83;27451;-66
2021/08/11 05:11:25;;;;;;;76.80;38.85;;;;;;;16.34;92.30;100306.99;1709498;83;26432;-66
2021/08/11 05:13:51;;;;;;;86.78;39.80;;;;;;;16.37;92.64;100315.86;1686331;83;25799;-66
2021/08/11 05:16:18;;;;;;;78.85;39.92;;;;;;;16.41;93.15;100311.31;1710484;83;25743;-66
2021/08/11 05:18:44;;;;;;;82.97;43.63;;;;;;;16.46;93.31;100310.83;1710468;83;25731;-66
2021/08/11 05:21:13;;;;;;;81.05;40.08;;;;;;;16.49;93.13;100312.28;1710332;83;27330;-66
2021/08/11 05:23:39;;;;;;;84.28;40.95;;;;;;;16.50;92.94;100323.98;1710334;83;25730;-65
2021/08/11 05:26:05;;;;;;;91.65;42.55;;;;;;;16.55;93.32;100329.20;1710534;83;25628;-66
2021/08/11 05:28:32;;;;;;;87.10;42.20;;;;;;;16.59;93.70;100330.11;1710454;83;26287;-65
2021/08/11 05:30:58;;;;;;;85.30;43.17;;;;;;;16.61;93.90;100314.95;1710601;83;25905;-66
2021/08/11 05:33:24;;;;;;;80.62;42.95;;;;;;;16.66;93.48;100318.00;1708226;83;27324;-66
2021/08/11 05:35:51;;;;;;;92.22;43.08;;;;;;;16.67;92.90;100317.42;1709837;83;25762;-66
2021/08/11 05:38:18;;;;;;;83.45;46.18;;;;;;;16.64;92.71;100320.30;1678825;84;25739;-66
2021/08/11 05:40:44;;;;;;;86.70;48.08;;;;;;;16.68;93.05;100323.91;1708991;83;25719;-66
2021/08/11 05:43:11;;;;;;;88.07;47.35;;;;;;;16.62;92.31;100314.39;1709912;83;26392;-66
2021/08/11 05:45:37;;;;;;;84.05;49.67;;;;;;;16.59;92.00;100321.33;1710416;83;27323;-66
2021/08/11 05:48:05;;;;;;;81.02;50.28;;;;;;;16.51;91.34;100328.32;1709828;83;27137;-65
2021/08/11 05:50:31;;;;;;;92.65;50.73;;;;;;;16.46;91.68;100326.62;1686452;83;25750;-67
2021/08/11 05:52:58;;;;;;;89.15;52.27;;;;;;;16.46;92.14;100334.03;1687126;84;26379;-66
2021/08/11 05:55:24;;;;;;;86.25;48.55;;;;;;;16.39;91.75;100340.87;1708601;83;25810;-66
2021/08/11 05:57:51;;;;;;;85.07;48.98;;;;;;;16.32;91.58;100339.88;1710377;83;27499;-66
2021/08/11 06:00:18;;;;;;;88.22;48.90;;;;;;;16.30;92.08;100342.17;1709970;83;25742;-66
2021/08/11 06:02:44;;;;;;;87.12;48.00;;;;;;;16.23;91.93;100335.36;1710110;83;25800;-66
2021/08/11 06:05:11;;;;;;;87.27;47.10;;;;;;;16.24;92.54;100334.78;1710423;83;25749;-66
2021/08/11 06:07:39;;;;;;;76.65;45.08;;;;;;;16.24;92.84;100335.59;1710866;83;25682;-66
2021/08/11 06:10:07;;;;;;;74.53;45.38;;;;;;;16.22;92.44;100335.13;1710335;83;28135;-66
2021/08/11 06:12:35;;;;;;;70.08;41.70;;;;;;;16.24;92.55;100344.33;1710121;83;25911;-66
2021/08/11 06:15:03;;;;;;;68.17;40.25;;;;;;;16.25;92.87;100348.08;1709966;83;26474;-66
2021/08/11 06:17:31;;;;;;;73.25;41.45;;;;;;;16.28;93.12;100341.16;1705354;83;26118;-65
2021/08/11 06:19:57;;;;;;;65.25;38.08;;;;;;;16.32;93.53;100339.88;1705574;83;25778;-66
2021/08/11 06:22:24;;;;;;;65.85;38.92;;;;;;;16.34;93.37;100346.57;1710359;83;27334;-66
2021/08/11 06:24:50;;;;;;;64.45;37.93;;;;;;;16.38;93.51;100349.43;1709938;83;25756;-65
2021/08/11 06:27:17;;;;;;;63.75;37.60;;;;;;;16.38;93.32;100347.48;1710347;83;25684;-65
2021/08/11 06:29:43;;;;;;;63.28;38.25;;;;;;;16.43;93.93;100345.09;1710493;83;25900;-65
2021/08/11 06:32:10;;;;;;;63.60;37.73;;;;;;;16.45;93.57;100355.08;1709174;83;25762;-65
2021/08/11 06:34:36;;;;;;;62.58;38.38;;;;;;;16.46;93.30;100352.56;1708252;83;27391;-66
2021/08/11 06:37:03;;;;;;;60.85;36.98;;;;;;;16.46;93.19;100351.19;1709633;83;25717;-66
2021/08/11 06:39:30;;;;;;;58.73;36.33;;;;;;;16.51;94.05;100357.77;1710504;83;25753;-66
2021/08/11 06:41:56;;;;;;;71.65;38.05;;;;;;;16.59;94.30;100354.10;1710571;83;26366;-66
2021/08/11 06:44:23;;;;;;;67.72;36.93;;;;;;;16.69;94.66;100355.55;1710685;83;25642;-66
2021/08/11 06:46:49;;;;;;;59.05;36.38;;;;;;;16.82;95.40;100350.80;1710550;83;27319;-66
2021/08/11 06:49:17;;;;;;;65.78;36.60;;;;;;;16.93;94.62;100356.59;1710535;83;25769;-66
2021/08/11 06:51:44;;;;;;;55.83;34.03;;;;;;;17.03;94.59;100357.45;1710140;83;25682;-66
2021/08/11 06:54:12;;;;;;;57.80;33.65;;;;;;;17.09;93.43;100357.39;1709933;83;25690;-65
2021/08/11 06:56:40;;;;;;;56.75;33.90;;;;;;;17.27;93.82;100348.28;1710362;83;25776;-66
2021/08/11 06:59:07;;;;;;;52.20;33.30;;;;;;;17.53;95.43;100355.94;1710762;83;27374;-66
2021/08/11 07:01:34;;;;;;;43.40;30.30;;;;;;;17.77;95.10;100360.98;1710226;83;25653;-66
2021/08/11 07:04:00;;;;;;;45.92;30.15;;;;;;;17.99;94.99;100363.65;1710866;83;25916;-66
2021/08/11 07:06:27;;;;;;;36.65;26.33;;;;;;;18.07;93.35;100370.08;1710469;83;25827;-66
2021/08/11 07:08:53;;;;;;;41.13;28.67;;;;;;;18.06;91.49;100374.74;1710698;83;25725;-65
2021/08/11 07:11:21;;;;;;;41.48;27.62;;;;;;;18.03;92.25;100371.38;1710454;83;27388;-65
2021/08/11 07:13:48;;;;;;;41.83;28.25;;;;;;;18.06;92.54;100369.27;1710379;83;25674;-66
2021/08/11 07:16:16;;;;;;;47.17;28.60;;;;;;;18.10;92.82;100378.37;1709793;83;25654;-66
2021/08/11 07:18:42;;;;;;;42.75;28.65;;;;;;;18.19;94.27;100379.53;1710527;83;25699;-66
2021/08/11 07:21:11;;;;;;;43.73;28.02;;;;;;;18.31;95.01;100379.98;1710033;83;25709;-65
2021/08/11 07:23:38;;;;;;;37.27;27.03;;;;;;;18.36;93.93;100381.06;1710802;83;27281;-66
2021/08/11 07:26:05;;;;;;;33.50;25.40;;;;;;;18.40;93.80;100381.91;1710652;83;25779;-66
2021/08/11 07:28:32;;;;;;;35.58;27.00;;;;;;;18.49;93.79;100380.36;1710703;83;25813;-66
2021/08/11 07:30:58;;;;;;;39.10;26.12;;;;;;;18.64;94.42;100380.86;1710711;83;25793;-67
2021/08/11 07:33:25;;;;;;;49.27;29.48;;;;;;;18.91;96.42;100376.08;1709680;83;25675;-66
2021/08/11 07:35:51;;;;;;;39.35;27.02;;;;;;;19.20;97.59;100378.16;1675658;85;27344;-67
2021/08/11 07:38:20;;;;;;;47.53;29.50;;;;;;;19.41;95.75;100384.61;1710370;83;27115;-67
2021/08/11 07:40:46;;;;;;;37.40;26.35;;;;;;;19.61;95.31;100388.63;1710560;83;25806;-65
2021/08/11 07:43:13;;;;;;;42.10;25.27;;;;;;;19.88;94.96;100387.30;1710285;83;25730;-66
2021/08/11 07:45:40;;;;;;;36.53;24.75;;;;;;;20.17;96.87;100387.11;1710037;83;25680;-66
2021/08/11 07:48:07;;;;;;;35.75;24.32;;;;;;;20.52;96.91;100398.36;1710635;83;27947;-66
2021/08/11 07:50:39;;;;;;;33.13;22.05;;;;;;;20.59;93.75;100401.78;1710314;83;25674;-66
2021/08/11 07:53:06;;;;;;;33.55;23.18;;;;;;;20.73;93.49;100404.71;1710418;83;25770;-66
2021/08/11 07:55:33;;;;;;;26.02;19.90;;;;;;;20.75;91.85;100405.12;1709791;83;25770;-66
2021/08/11 07:58:00;;;;;;;27.00;20.23;;;;;;;20.67;90.13;100404.27;1710429;83;25759;-66
2021/08/11 08:00:29;;;;;;;24.80;17.50;;;;;;;20.61;89.17;100396.70;1656492;85;27338;-66
2021/08/11 08:02:55;;;;;;;17.43;15.50;;;;;;;20.59;89.35;100401.78;1709874;83;26488;-65
2021/08/11 08:05:23;;;;;;;21.25;18.90;;;;;;;20.78;89.84;100391.22;1710515;83;25681;-66
2021/08/11 08:07:49;;;;;;;21.40;18.67;;;;;;;21.05;92.14;100389.93;1711341;83;25743;-66
2021/08/11 08:10:17;;;;;;;24.72;18.77;;;;;;;21.35;92.67;100382.72;1710549;83;25741;-66
2021/08/11 08:12:44;;;;;;;20.02;17.92;;;;;;;21.62;91.60;100384.17;1675627;85;27401;-66
2021/08/11 08:15:15;;;;;;;16.32;14.18;;;;;;;21.86;90.51;100377.03;1710443;83;25658;-66
2021/08/11 08:17:43;;;;;;;21.35;16.50;;;;;;;22.00;88.37;100374.38;1687185;83;25737;-65
2021/08/11 08:20:11;;;;;;;14.47;12.95;;;;;;;22.21;90.08;100368.18;1710411;83;26217;-65
2021/08/11 08:22:38;;;;;;;16.60;14.83;;;;;;;22.50;88.89;100369.11;1675882;85;25842;-66
2021/08/11 08:25:06;;;;;;;13.78;12.37;;;;;;;22.72;87.50;100373.32;1710387;83;29489;-66
2021/08/11 08:27:33;;;;;;;17.67;14.30;;;;;;;22.98;86.51;100374.16;1710390;83;25787;-66
2021/08/11 08:30:00;;;;;;;14.28;12.78;;;;;;;23.21;86.00;100371.07;1710100;83;25729;-66
2021/08/11 08:32:28;;;;;;;16.07;14.30;;;;;;;23.48;84.02;100377.77;1709321;83;25898;-66
2021/08/11 08:34:54;;;;;;;16.77;13.67;;;;;;;23.77;84.99;100373.59;1685790;83;25712;-67
2021/08/11 08:37:31;;;;;;;13.38;11.90;;;;;;;24.09;82.82;100371.95;1703442;84;27556;-67
2021/08/11 08:40:00;;;;;;;14.87;13.10;;;;;;;24.20;81.11;100369.35;1709122;83;25745;-67
2021/08/11 08:42:26;;;;;;;13.83;12.25;;;;;;;24.23;79.58;100376.84;1710471;83;25812;-67
2021/08/11 08:44:53;;;;;;;16.60;14.07;;;;;;;24.36;78.58;100369.49;1710383;83;25747;-67
2021/08/11 08:47:21;;;;;;;13.60;11.83;;;;;;;24.64;80.01;100364.45;1703437;83;25747;-67
2021/08/11 08:49:50;;;;;;;15.83;13.25;;;;;;;24.90;77.47;100370.62;1705861;83;27314;-67
2021/08/11 08:52:19;;;;;;;14.47;12.70;;;;;;;24.84;75.75;100364.71;1710495;83;25769;-67
2021/08/11 08:54:47;;;;;;;12.85;11.55;;;;;;;24.97;75.99;100360.28;1710500;83;25702;-67
2021/08/11 08:57:15;;;;;;;13.45;10.88;;;;;;;25.18;75.12;100365.46;1710509;83;26252;-67
2021/08/11 08:59:43;;;;;;;12.45;11.28;;;;;;;25.41;74.94;100362.15;1675965;85;25766;-67
2021/08/11 09:02:13;;;;;;;12.05;10.28;;;;;;;25.68;74.50;100355.37;1710531;83;27890;-67
2021/08/11 09:04:40;;;;;;;11.63;9.80;;;;;;;26.05;73.34;100351.63;1710395;83;25836;-67
2021/08/11 09:07:10;;;;;;;15.00;13.13;;;;;;;26.27;71.80;100357.70;1710431;83;25710;-68
2021/08/11 09:09:38;;;;;;;11.35;9.70;;;;;;;26.65;71.46;100359.80;1689331;83;25801;-67
2021/08/11 09:12:12;;;;;;;9.83;8.93;;;;;;;26.81;69.76;100348.07;1709675;83;25764;-68
2021/08/11 09:14:44;;;;;;;8.78;7.80;;;;;;;27.01;68.77;100346.01;1710435;83;27273;-68
2021/08/11 09:17:11;;;;;;;8.55;7.65;;;;;;;27.21;67.89;100345.47;1710147;83;25662;-68
2021/08/11 09:19:45;;;;;;;8.63;7.30;;;;;;;27.35;66.99;100347.86;1710640;83;26342;-68
2021/08/11 09:22:15;;;;;;;9.10;7.65;;;;;;;27.24;62.38;100345.83;1709497;83;25859;-68
2021/08/11 09:24:43;;;;;;;10.43;6.70;;;;;;;26.91;61.76;100353.89;1710196;83;25369;-68
2021/08/11 09:27:27;;;;;;;10.20;6.53;;;;;;;26.63;61.30;100349.73;1710790;83;27343;-68
2021/08/11 09:30:10;;;;;;;8.05;6.90;;;;;;;26.55;63.62;100352.39;1710460;83;25730;-67
2021/08/11 09:32:59;;;;;;;11.28;8.55;;;;;;;26.40;62.20;100350.41;1709643;83;25682;-68
2021/08/11 09:35:30;;;;;;;11.05;7.72;;;;;;;26.08;61.82;100353.58;1706143;84;26314;-69
2021/08/11 09:38:00;;;;;;;8.38;6.97;;;;;;;26.04;63.31;100350.08;1708153;83;25647;-69
2021/08/11 09:40:32;;;;;;;11.35;7.53;;;;;;;26.41;64.35;100351.21;1707545;84;27346;-68
2021/08/11 09:43:03;;;;;;;9.30;6.75;;;;;;;26.40;61.92;100351.02;1709645;83;25833;-69
2021/08/11 09:45:47;;;;;;;8.08;6.65;;;;;;;26.30;62.89;100346.39;1710293;83;25671;-68
2021/08/11 09:48:16;;;;;;;8.73;7.20;;;;;;;26.64;63.79;100346.35;1683419;84;25681;-69
2021/08/11 09:50:47;;;;;;;7.03;6.25;;;;;;;26.74;61.84;100344.02;1683557;84;26491;-70
2021/08/11 09:53:28;;;;;;;7.85;5.55;;;;;;;26.76;61.57;100340.22;1683629;85;27411;-69
2021/08/11 09:56:10;;;;;;;8.25;5.10;;;;;;;26.70;60.72;100341.91;1682607;85;27363;-69
2021/08/11 09:58:43;;;;;;;8.50;5.10;;;;;;;26.52;59.83;100350.45;1683375;85;25841;-69
2021/08/11 10:01:20;;;;;;;6.97;5.47;;;;;;;26.15;59.80;100343.78;1683400;85;27940;-69
2021/08/11 10:04:20;;;;;;;9.25;5.72;;;;;;;25.89;58.94;100343.88;1681222;85;25763;-70
2021/08/11 10:06:47;;;;;;;7.45;5.17;;;;;;;25.71;61.40;100342.09;1661251;86;28104;-70
2021/08/11 10:09:23;;;;;;;5.83;5.30;;;;;;;26.06;58.07;100342.91;1657567;86;25734;-71
2021/08/11 10:11:53;;;;;;;6.75;5.22;;;;;;;26.04;58.68;100338.37;1656630;86;26324;-71
2021/08/11 10:14:23;;;;;;;12.93;5.53;;;;;;;25.83;58.58;100338.59;1656633;86;26551;-70
2021/08/11 10:16:52;;;;;;;20.72;7.20;;;;;;;25.90;60.21;100342.69;1656667;86;25797;-71
2021/08/11 10:19:23;;;;;;;17.07;6.40;;;;;;;26.04;60.61;100341.77;1656704;86;27351;-70
2021/08/11 10:22:05;;;;;;;21.17;7.00;;;;;;;26.04;59.34;100339.77;1656500;86;26656;-70
2021/08/11 10:24:32;;;;;;;13.15;6.25;;;;;;;25.89;58.92;100343.27;1678423;84;25850;-71
2021/08/11 10:26:59;;;;;;;10.90;5.28;;;;;;;25.70;58.82;100352.97;1660619;85;25745;-71
2021/08/11 10:29:29;;;;;;;9.53;4.95;;;;;;;25.54;58.58;100350.77;1691583;84;25684;-71
2021/08/11 10:31:55;;;;;;;;;;;;;;;25.66;59.95;100355.58;1694143;84;29565;-72
2021/08/11 10:34:23;;;;;;;7.20;4.95;;;;;;;25.74;58.09;100355.70;1724430;83;25854;-72
2021/08/11 10:36:50;;;;;;;4.03;3.70;;;;;;;25.72;57.71;100349.79;1724841;83;25846;-72
2021/08/11 10:39:18;;;;;;;8.43;4.33;;;;;;;25.51;56.80;100343.27;1722729;83;25899;-72
2021/08/11 10:41:46;;;;;;;5.08;3.67;;;;;;;25.40;57.59;100344.56;1724704;83;26332;-72
2021/08/11 10:44:19;;;;;;;4.75;3.60;;;;;;;25.61;57.22;100349.91;1743025;81;27347;-72
2021/08/11 10:46:59;;;;;;;5.33;3.80;;;;;;;25.69;57.81;100343.68;1755209;81;25779;-72
2021/08/11 10:49:28;;;;;;;5.50;3.95;;;;;;;26.02;58.13;100346.94;1752186;81;26391;-72
2021/08/11 10:51:59;;;;;;;4.67;4.28;;;;;;;26.40;57.53;100345.47;1755257;81;25791;-72
2021/08/11 10:54:27;;;;;;;5.33;4.10;;;;;;;26.31;54.64;100338.27;1749353;81;25946;-72
2021/08/11 10:56:56;;;;;;;5.42;3.80;;;;;;;26.05;54.56;100344.12;1755239;81;27535;-72
2021/08/11 10:59:28;;;;;;;;;;;;;;;25.91;54.72;100344.23;1757710;81;26397;-72
2021/08/11 11:01:56;;;;;;;19.52;11.53;;;;;;;25.70;55.13;100353.58;1755321;81;25629;-72
2021/08/11 11:04:50;;;;;;;17.95;7.85;;;;;;;25.48;55.49;100355.77;1755350;81;25787;-73
2021/08/11 11:07:18;;;;;;;70.05;10.58;;;;;;;25.28;55.41;100356.31;1755276;81;25735;-73
2021/08/11 11:09:50;;;;;;;56.98;10.43;;;;;;;25.02;55.29;100359.07;1755244;81;27368;-71
2021/08/11 11:12:22;;;;;;;98.70;13.60;;;;;;;24.80;55.89;100359.81;1755164;81;26316;-71
2021/08/11 11:15:00;;;;;;;108.50;15.50;;;;;;;24.65;56.59;100358.32;1755179;81;25724;-71
2021/08/11 11:17:31;;;;;;;8.00;3.90;;;;;;;24.60;56.69;100356.19;1755435;81;26293;-71
2021/08/11 11:20:09;;;;;;;7.10;3.45;;;;;;;24.89;56.78;100352.44;1755221;81;25657;-71